sensor_id;sensor_type;location;lat;lon;timestamp;temperature;humidity
46490;DHT22;32204;49.160;8.580;2023-05-17T00:02:07;11.00;99.90
46490;DHT22;32204;49.160;8.580;2023-05-17T00:04:32;11.00;99.90
46490;DHT22;32204;49.160;8.580;2023-05-17T00:06:58;10.90;1.00
46490;DHT22;32204;49.160;8.580;2023-05-17T00:09:24;10.90;99.90
46490;DHT22;32204;49.160;8.580;2023-05-17T00:11:49;10.90;99.90
46490;DHT22;32204;49.160;8.580;2023-05-17T00:14:15;10.90;99.90
46490;DHT22;32204;49.160;8.580;2023-05-17T00:16:41;10.80;99.90
46490;DHT22;32204;49.160;8.580;2023-05-17T00:19:06;10.80;99.90
46490;DHT22;32204;49.160;8.580;2023-05-17T00:21:34;10.80;99.90
46490;DHT22;32204;49.160;8.580;2023-05-17T00:23:59;10.90;99.90
46490;DHT22;32204;49.160;8.580;2023-05-17T00:26:25;10.80;99.90
46490;DHT22;32204;49.160;8.580;2023-05-17T00:28:50;10.80;99.90
46490;DHT22;32204;49.160;8.580;2023-05-17T00:31:16;10.80;99.90
46490;DHT22;32204;49.160;8.580;2023-05-17T00:33:41;10.80;99.90
46490;DHT22;32204;49.160;8.580;2023-05-17T00:36:07;10.70;99.90
46490;DHT22;32204;49.160;8.580;2023-05-17T00:38:33;10.70;99.90
46490;DHT22;32204;49.160;8.580;2023-05-17T00:40:58;10.50;99.90
46490;DHT22;32204;49.160;8.580;2023-05-17T00:43:24;10.60;99.90
46490;DHT22;32204;49.160;8.580;2023-05-17T00:45:51;10.60;99.90
46490;DHT22;32204;49.160;8.580;2023-05-17T00:48:17;10.60;99.90
46490;DHT22;32204;49.160;8.580;2023-05-17T00:50:45;10.60;1.00
46490;DHT22;32204;49.160;8.580;2023-05-17T00:53:11;10.50;1.00
46490;DHT22;32204;49.160;8.580;2023-05-17T00:55:41;10.40;1.00
46490;DHT22;32204;49.160;8.580;2023-05-17T00:58:07;10.40;1.00
46490;DHT22;32204;49.160;8.580;2023-05-17T01:00:33;10.40;1.00
46490;DHT22;32204;49.160;8.580;2023-05-17T01:02:59;10.50;1.00
46490;DHT22;32204;49.160;8.580;2023-05-17T01:05:25;10.60;1.00
46490;DHT22;32204;49.160;8.580;2023-05-17T01:07:52;10.50;1.00
46490;DHT22;32204;49.160;8.580;2023-05-17T01:10:18;10.50;1.00
46490;DHT22;32204;49.160;8.580;2023-05-17T01:13:09;10.40;1.00
46490;DHT22;32204;49.160;8.580;2023-05-17T01:15:42;10.30;99.90
46490;DHT22;32204;49.160;8.580;2023-05-17T01:18:40;10.30;99.90
46490;DHT22;32204;49.160;8.580;2023-05-17T01:26:38;10.10;99.90
46490;DHT22;32204;49.160;8.580;2023-05-17T01:29:04;9.80;1.00
46490;DHT22;32204;49.160;8.580;2023-05-17T01:31:32;9.80;99.90
46490;DHT22;32204;49.160;8.580;2023-05-17T01:33:58;9.80;99.90
46490;DHT22;32204;49.160;8.580;2023-05-17T01:36:23;9.70;92.50
46490;DHT22;32204;49.160;8.580;2023-05-17T01:38:51;9.70;99.90
46490;DHT22;32204;49.160;8.580;2023-05-17T01:41:29;9.70;99.90
46490;DHT22;32204;49.160;8.580;2023-05-17T01:46:57;9.50;99.90
46490;DHT22;32204;49.160;8.580;2023-05-17T01:49:30;9.50;99.90
46490;DHT22;32204;49.160;8.580;2023-05-17T01:52:07;9.60;99.90
46490;DHT22;32204;49.160;8.580;2023-05-17T01:54:49;9.60;99.90
46490;DHT22;32204;49.160;8.580;2023-05-17T01:57:19;9.50;99.90
46490;DHT22;32204;49.160;8.580;2023-05-17T01:59:49;9.50;16.40
46490;DHT22;32204;49.160;8.580;2023-05-17T02:02:16;9.50;1.00
46490;DHT22;32204;49.160;8.580;2023-05-17T02:04:41;9.40;36.90
46490;DHT22;32204;49.160;8.580;2023-05-17T02:07:07;9.40;99.90
46490;DHT22;32204;49.160;8.580;2023-05-17T02:09:32;9.40;53.20
46490;DHT22;32204;49.160;8.580;2023-05-17T02:11:58;9.40;36.90
46490;DHT22;32204;49.160;8.580;2023-05-17T02:14:23;9.40;99.90
46490;DHT22;32204;49.160;8.580;2023-05-17T02:16:49;9.30;99.90
46490;DHT22;32204;49.160;8.580;2023-05-17T02:19:15;9.20;99.90
46490;DHT22;32204;49.160;8.580;2023-05-17T02:21:40;9.20;99.90
46490;DHT22;32204;49.160;8.580;2023-05-17T02:24:06;9.20;1.00
46490;DHT22;32204;49.160;8.580;2023-05-17T02:26:31;9.30;1.00
46490;DHT22;32204;49.160;8.580;2023-05-17T02:28:57;9.40;99.90
46490;DHT22;32204;49.160;8.580;2023-05-17T02:31:23;9.40;99.90
46490;DHT22;32204;49.160;8.580;2023-05-17T02:33:52;9.30;99.90
46490;DHT22;32204;49.160;8.580;2023-05-17T02:36:18;9.20;99.90
46490;DHT22;32204;49.160;8.580;2023-05-17T02:38:44;9.20;99.90
46490;DHT22;32204;49.160;8.580;2023-05-17T02:41:09;9.30;99.90
46490;DHT22;32204;49.160;8.580;2023-05-17T02:43:35;9.20;99.90
46490;DHT22;32204;49.160;8.580;2023-05-17T02:46:01;9.30;99.90
46490;DHT22;32204;49.160;8.580;2023-05-17T02:48:26;9.20;99.90
46490;DHT22;32204;49.160;8.580;2023-05-17T02:50:52;9.10;99.90
46490;DHT22;32204;49.160;8.580;2023-05-17T02:53:17;9.00;1.00
46490;DHT22;32204;49.160;8.580;2023-05-17T02:55:43;9.00;99.90
46490;DHT22;32204;49.160;8.580;2023-05-17T02:58:08;9.00;99.90
46490;DHT22;32204;49.160;8.580;2023-05-17T03:00:34;9.10;99.90
46490;DHT22;32204;49.160;8.580;2023-05-17T03:03:00;9.10;99.90
46490;DHT22;32204;49.160;8.580;2023-05-17T03:05:26;9.10;1.00
46490;DHT22;32204;49.160;8.580;2023-05-17T03:07:51;9.00;1.00
46490;DHT22;32204;49.160;8.580;2023-05-17T03:10:17;9.00;1.00
46490;DHT22;32204;49.160;8.580;2023-05-17T03:12:43;9.20;1.00
46490;DHT22;32204;49.160;8.580;2023-05-17T03:15:09;9.30;1.00
46490;DHT22;32204;49.160;8.580;2023-05-17T03:17:34;9.40;99.90
46490;DHT22;32204;49.160;8.580;2023-05-17T03:20:01;9.30;52.80
46490;DHT22;32204;49.160;8.580;2023-05-17T03:22:26;9.30;99.90
46490;DHT22;32204;49.160;8.580;2023-05-17T03:24:52;9.10;99.90
46490;DHT22;32204;49.160;8.580;2023-05-17T03:27:18;9.20;1.00
46490;DHT22;32204;49.160;8.580;2023-05-17T03:29:43;9.30;1.00
46490;DHT22;32204;49.160;8.580;2023-05-17T03:32:09;9.30;1.00
46490;DHT22;32204;49.160;8.580;2023-05-17T03:34:34;9.30;99.90
46490;DHT22;32204;49.160;8.580;2023-05-17T03:37:00;9.20;99.90
46490;DHT22;32204;49.160;8.580;2023-05-17T03:39:26;9.00;99.90
46490;DHT22;32204;49.160;8.580;2023-05-17T03:41:51;8.80;1.00
46490;DHT22;32204;49.160;8.580;2023-05-17T03:44:17;8.60;99.90
46490;DHT22;32204;49.160;8.580;2023-05-17T03:46:42;8.50;25.50
46490;DHT22;32204;49.160;8.580;2023-05-17T03:49:08;8.50;1.00
46490;DHT22;32204;49.160;8.580;2023-05-17T03:51:33;8.50;1.00
46490;DHT22;32204;49.160;8.580;2023-05-17T03:54:00;8.40;1.00
46490;DHT22;32204;49.160;8.580;2023-05-17T03:56:25;8.40;99.90
46490;DHT22;32204;49.160;8.580;2023-05-17T03:58:51;8.50;99.90
46490;DHT22;32204;49.160;8.580;2023-05-17T04:01:17;8.60;1.00
46490;DHT22;32204;49.160;8.580;2023-05-17T04:03:45;8.70;1.00
46490;DHT22;32204;49.160;8.580;2023-05-17T04:06:12;8.70;99.90
46490;DHT22;32204;49.160;8.580;2023-05-17T04:08:39;8.70;1.00
46490;DHT22;32204;49.160;8.580;2023-05-17T04:11:05;8.50;99.90
46490;DHT22;32204;49.160;8.580;2023-05-17T04:13:40;8.50;1.00
46490;DHT22;32204;49.160;8.580;2023-05-17T04:16:07;8.40;96.10
46490;DHT22;32204;49.160;8.580;2023-05-17T04:18:37;8.60;99.90
46490;DHT22;32204;49.160;8.580;2023-05-17T04:21:04;8.70;99.90
46490;DHT22;32204;49.160;8.580;2023-05-17T04:23:31;8.70;99.90
46490;DHT22;32204;49.160;8.580;2023-05-17T04:25:57;8.70;99.90
46490;DHT22;32204;49.160;8.580;2023-05-17T04:28:23;8.80;6.30
46490;DHT22;32204;49.160;8.580;2023-05-17T04:30:49;8.90;1.00
46490;DHT22;32204;49.160;8.580;2023-05-17T04:33:14;9.00;1.00
46490;DHT22;32204;49.160;8.580;2023-05-17T04:35:41;9.10;99.90
46490;DHT22;32204;49.160;8.580;2023-05-17T04:38:07;9.30;99.90
46490;DHT22;32204;49.160;8.580;2023-05-17T04:40:33;9.30;1.00
46490;DHT22;32204;49.160;8.580;2023-05-17T04:42:58;9.40;1.00
46490;DHT22;32204;49.160;8.580;2023-05-17T04:45:24;9.50;99.90
46490;DHT22;32204;49.160;8.580;2023-05-17T04:47:50;9.70;99.90
46490;DHT22;32204;49.160;8.580;2023-05-17T04:50:17;10.00;99.90
46490;DHT22;32204;49.160;8.580;2023-05-17T04:52:44;10.10;99.90
46490;DHT22;32204;49.160;8.580;2023-05-17T04:55:10;10.30;3.80
46490;DHT22;32204;49.160;8.580;2023-05-17T04:57:35;10.80;99.90
46490;DHT22;32204;49.160;8.580;2023-05-17T05:00:02;11.70;1.00
46490;DHT22;32204;49.160;8.580;2023-05-17T05:02:39;12.30;39.70
46490;DHT22;32204;49.160;8.580;2023-05-17T05:05:06;12.30;1.00
46490;DHT22;32204;49.160;8.580;2023-05-17T05:07:32;12.20;1.00
46490;DHT22;32204;49.160;8.580;2023-05-17T05:10:00;12.40;1.00
46490;DHT22;32204;49.160;8.580;2023-05-17T05:12:26;12.20;52.20
46490;DHT22;32204;49.160;8.580;2023-05-17T05:14:51;12.20;99.90
46490;DHT22;32204;49.160;8.580;2023-05-17T05:17:17;12.50;1.00
46490;DHT22;32204;49.160;8.580;2023-05-17T05:19:43;12.80;1.00
46490;DHT22;32204;49.160;8.580;2023-05-17T05:22:08;13.60;99.90
46490;DHT22;32204;49.160;8.580;2023-05-17T05:24:34;14.10;99.90
46490;DHT22;32204;49.160;8.580;2023-05-17T05:27:00;14.50;4.60
46490;DHT22;32204;49.160;8.580;2023-05-17T05:29:26;15.20;1.00
46490;DHT22;32204;49.160;8.580;2023-05-17T05:31:52;15.60;1.00
46490;DHT22;32204;49.160;8.580;2023-05-17T05:34:17;15.70;1.00
46490;DHT22;32204;49.160;8.580;2023-05-17T05:36:43;15.80;99.90
46490;DHT22;32204;49.160;8.580;2023-05-17T05:39:09;16.40;99.90
46490;DHT22;32204;49.160;8.580;2023-05-17T05:41:36;17.20;99.90
46490;DHT22;32204;49.160;8.580;2023-05-17T05:44:02;17.60;99.90
46490;DHT22;32204;49.160;8.580;2023-05-17T05:46:28;17.60;99.90
46490;DHT22;32204;49.160;8.580;2023-05-17T05:48:54;16.40;99.90
46490;DHT22;32204;49.160;8.580;2023-05-17T05:51:19;16.50;99.90
46490;DHT22;32204;49.160;8.580;2023-05-17T05:53:45;15.90;99.90
46490;DHT22;32204;49.160;8.580;2023-05-17T05:56:10;14.90;99.90
46490;DHT22;32204;49.160;8.580;2023-05-17T05:58:36;14.40;1.00
46490;DHT22;32204;49.160;8.580;2023-05-17T06:01:02;14.00;1.00
46490;DHT22;32204;49.160;8.580;2023-05-17T06:03:28;13.70;1.00
46490;DHT22;32204;49.160;8.580;2023-05-17T06:05:54;13.40;1.00
46490;DHT22;32204;49.160;8.580;2023-05-17T06:08:19;13.20;15.50
46490;DHT22;32204;49.160;8.580;2023-05-17T06:10:45;13.50;16.70
46490;DHT22;32204;49.160;8.580;2023-05-17T06:13:11;13.80;1.00
46490;DHT22;32204;49.160;8.580;2023-05-17T06:15:36;14.30;1.00
46490;DHT22;32204;49.160;8.580;2023-05-17T06:18:02;15.00;1.00
46490;DHT22;32204;49.160;8.580;2023-05-17T06:20:28;16.40;99.90
46490;DHT22;32204;49.160;8.580;2023-05-17T06:22:54;17.90;99.90
46490;DHT22;32204;49.160;8.580;2023-05-17T06:25:20;18.60;99.90
46490;DHT22;32204;49.160;8.580;2023-05-17T06:27:45;19.50;99.90
46490;DHT22;32204;49.160;8.580;2023-05-17T06:30:11;19.60;99.90
46490;DHT22;32204;49.160;8.580;2023-05-17T06:32:37;19.50;99.90
46490;DHT22;32204;49.160;8.580;2023-05-17T06:35:03;18.90;99.90
46490;DHT22;32204;49.160;8.580;2023-05-17T06:37:29;19.20;99.90
46490;DHT22;32204;49.160;8.580;2023-05-17T12:37:29;15.50;99.90
46490;DHT22;32204;49.160;8.580;2023-05-17T12:39:55;15.80;99.90
46490;DHT22;32204;49.160;8.580;2023-05-17T12:42:22;15.80;99.90
46490;DHT22;32204;49.160;8.580;2023-05-17T12:44:47;15.80;99.90
46490;DHT22;32204;49.160;8.580;2023-05-17T12:47:13;15.70;99.90
46490;DHT22;32204;49.160;8.580;2023-05-17T12:49:39;15.80;99.90
46490;DHT22;32204;49.160;8.580;2023-05-17T12:52:16;15.80;99.90
46490;DHT22;32204;49.160;8.580;2023-05-17T12:54:42;15.70;99.90
46490;DHT22;32204;49.160;8.580;2023-05-17T12:57:09;15.70;99.90
46490;DHT22;32204;49.160;8.580;2023-05-17T12:59:48;15.70;99.90
46490;DHT22;32204;49.160;8.580;2023-05-17T13:02:14;15.90;99.90
46490;DHT22;32204;49.160;8.580;2023-05-17T13:04:40;16.00;99.90
46490;DHT22;32204;49.160;8.580;2023-05-17T13:07:06;15.80;99.90
46490;DHT22;32204;49.160;8.580;2023-05-17T13:09:32;15.60;99.90
46490;DHT22;32204;49.160;8.580;2023-05-17T13:12:00;15.50;99.90
46490;DHT22;32204;49.160;8.580;2023-05-17T13:14:38;15.50;99.90
46490;DHT22;32204;49.160;8.580;2023-05-17T13:17:07;15.60;99.90
46490;DHT22;32204;49.160;8.580;2023-05-17T13:19:33;15.80;99.90
46490;DHT22;32204;49.160;8.580;2023-05-17T13:22:00;16.10;99.90
46490;DHT22;32204;49.160;8.580;2023-05-17T13:24:26;16.30;99.90
46490;DHT22;32204;49.160;8.580;2023-05-17T13:26:54;16.80;99.90
46490;DHT22;32204;49.160;8.580;2023-05-17T13:29:20;17.10;99.90
46490;DHT22;32204;49.160;8.580;2023-05-17T13:31:46;16.70;99.90
46490;DHT22;32204;49.160;8.580;2023-05-17T13:34:12;16.80;99.90
46490;DHT22;32204;49.160;8.580;2023-05-17T13:36:37;16.70;99.90
46490;DHT22;32204;49.160;8.580;2023-05-17T13:39:03;16.80;99.90
46490;DHT22;32204;49.160;8.580;2023-05-17T13:41:29;16.60;99.90
46490;DHT22;32204;49.160;8.580;2023-05-17T13:43:55;16.50;99.90
46490;DHT22;32204;49.160;8.580;2023-05-17T13:46:22;16.60;99.90
46490;DHT22;32204;49.160;8.580;2023-05-17T13:48:47;16.50;99.90
46490;DHT22;32204;49.160;8.580;2023-05-17T13:51:13;16.30;99.90
46490;DHT22;32204;49.160;8.580;2023-05-17T13:53:38;16.40;99.90
46490;DHT22;32204;49.160;8.580;2023-05-17T13:56:06;16.70;99.90
46490;DHT22;32204;49.160;8.580;2023-05-17T13:58:31;16.70;99.90
46490;DHT22;32204;49.160;8.580;2023-05-17T14:00:57;16.80;99.90
46490;DHT22;32204;49.160;8.580;2023-05-17T14:03:23;16.70;99.90
46490;DHT22;32204;49.160;8.580;2023-05-17T14:05:49;16.50;99.90
46490;DHT22;32204;49.160;8.580;2023-05-17T14:08:17;16.30;99.90
46490;DHT22;32204;49.160;8.580;2023-05-17T14:10:43;16.30;99.90
46490;DHT22;32204;49.160;8.580;2023-05-17T14:13:08;16.50;99.90
46490;DHT22;32204;49.160;8.580;2023-05-17T14:15:36;16.90;99.90
46490;DHT22;32204;49.160;8.580;2023-05-17T14:18:04;17.50;99.90
46490;DHT22;32204;49.160;8.580;2023-05-17T14:20:30;17.70;99.90
46490;DHT22;32204;49.160;8.580;2023-05-17T14:22:56;17.40;99.90
46490;DHT22;32204;49.160;8.580;2023-05-17T14:25:22;17.50;99.90
46490;DHT22;32204;49.160;8.580;2023-05-17T14:27:47;17.40;99.90
46490;DHT22;32204;49.160;8.580;2023-05-17T14:30:13;17.00;99.90
46490;DHT22;32204;49.160;8.580;2023-05-17T14:32:39;16.90;99.90
46490;DHT22;32204;49.160;8.580;2023-05-17T14:35:06;16.70;99.90
46490;DHT22;32204;49.160;8.580;2023-05-17T14:37:32;16.90;99.90
46490;DHT22;32204;49.160;8.580;2023-05-17T14:39:58;17.30;99.90
46490;DHT22;32204;49.160;8.580;2023-05-17T14:42:24;17.30;99.90
46490;DHT22;32204;49.160;8.580;2023-05-17T14:44:50;17.20;99.90
46490;DHT22;32204;49.160;8.580;2023-05-17T14:47:16;17.10;99.90
46490;DHT22;32204;49.160;8.580;2023-05-17T14:49:41;16.80;99.90
46490;DHT22;32204;49.160;8.580;2023-05-17T14:52:08;16.70;99.90
46490;DHT22;32204;49.160;8.580;2023-05-17T14:54:34;16.80;99.90
46490;DHT22;32204;49.160;8.580;2023-05-17T14:57:01;16.60;99.90
46490;DHT22;32204;49.160;8.580;2023-05-17T14:59:26;16.40;99.90
46490;DHT22;32204;49.160;8.580;2023-05-17T15:01:52;16.30;99.90
46490;DHT22;32204;49.160;8.580;2023-05-17T15:04:18;16.20;99.90
46490;DHT22;32204;49.160;8.580;2023-05-17T15:06:44;16.30;99.90
46490;DHT22;32204;49.160;8.580;2023-05-17T15:09:10;16.40;99.90
46490;DHT22;32204;49.160;8.580;2023-05-17T15:11:38;16.30;99.90
46490;DHT22;32204;49.160;8.580;2023-05-17T15:14:04;16.60;99.90
46490;DHT22;32204;49.160;8.580;2023-05-17T15:16:31;16.80;99.90
46490;DHT22;32204;49.160;8.580;2023-05-17T15:18:57;16.80;99.90
46490;DHT22;32204;49.160;8.580;2023-05-17T15:21:23;16.80;99.90
46490;DHT22;32204;49.160;8.580;2023-05-17T15:23:49;16.80;99.90
46490;DHT22;32204;49.160;8.580;2023-05-17T15:26:15;16.90;99.90
46490;DHT22;32204;49.160;8.580;2023-05-17T15:28:42;17.10;99.90
46490;DHT22;32204;49.160;8.580;2023-05-17T15:31:08;17.40;99.90
46490;DHT22;32204;49.160;8.580;2023-05-17T15:33:36;17.70;99.90
46490;DHT22;32204;49.160;8.580;2023-05-17T15:36:05;17.60;99.90
46490;DHT22;32204;49.160;8.580;2023-05-17T15:38:31;18.00;99.90
46490;DHT22;32204;49.160;8.580;2023-05-17T15:41:02;18.20;99.90
46490;DHT22;32204;49.160;8.580;2023-05-17T15:43:28;18.10;99.90
46490;DHT22;32204;49.160;8.580;2023-05-17T15:45:54;18.00;99.90
46490;DHT22;32204;49.160;8.580;2023-05-17T15:48:20;17.80;99.90
46490;DHT22;32204;49.160;8.580;2023-05-17T15:50:48;17.50;99.90
46490;DHT22;32204;49.160;8.580;2023-05-17T15:53:13;17.20;99.90
46490;DHT22;32204;49.160;8.580;2023-05-17T15:55:39;17.20;99.90
46490;DHT22;32204;49.160;8.580;2023-05-17T15:58:05;17.20;99.90
46490;DHT22;32204;49.160;8.580;2023-05-17T16:00:32;17.10;99.90
46490;DHT22;32204;49.160;8.580;2023-05-17T16:02:58;17.10;99.90
46490;DHT22;32204;49.160;8.580;2023-05-17T16:05:24;17.20;99.90
46490;DHT22;32204;49.160;8.580;2023-05-17T16:07:50;17.00;99.90
46490;DHT22;32204;49.160;8.580;2023-05-17T16:10:16;17.00;99.90
46490;DHT22;32204;49.160;8.580;2023-05-17T16:12:42;17.30;99.90
46490;DHT22;32204;49.160;8.580;2023-05-17T16:15:08;17.30;99.90
46490;DHT22;32204;49.160;8.580;2023-05-17T16:17:34;17.40;99.90
46490;DHT22;32204;49.160;8.580;2023-05-17T16:19:59;17.30;99.90
46490;DHT22;32204;49.160;8.580;2023-05-17T16:22:25;17.30;99.90
46490;DHT22;32204;49.160;8.580;2023-05-17T16:24:51;17.10;99.90
46490;DHT22;32204;49.160;8.580;2023-05-17T16:27:20;17.10;99.90
46490;DHT22;32204;49.160;8.580;2023-05-17T16:29:46;17.20;99.90
46490;DHT22;32204;49.160;8.580;2023-05-17T16:32:11;17.40;99.90
46490;DHT22;32204;49.160;8.580;2023-05-17T16:34:37;17.70;99.90
46490;DHT22;32204;49.160;8.580;2023-05-17T16:37:03;17.50;99.90
46490;DHT22;32204;49.160;8.580;2023-05-17T16:39:29;17.40;99.90
46490;DHT22;32204;49.160;8.580;2023-05-17T16:41:54;17.40;99.90
46490;DHT22;32204;49.160;8.580;2023-05-17T16:44:20;17.20;99.90
46490;DHT22;32204;49.160;8.580;2023-05-17T16:46:46;17.10;99.90
46490;DHT22;32204;49.160;8.580;2023-05-17T16:49:11;17.00;99.90
46490;DHT22;32204;49.160;8.580;2023-05-17T16:51:37;17.10;99.90
46490;DHT22;32204;49.160;8.580;2023-05-17T16:54:03;17.30;99.90
46490;DHT22;32204;49.160;8.580;2023-05-17T16:56:29;17.40;99.90
46490;DHT22;32204;49.160;8.580;2023-05-17T16:58:55;17.40;99.90
46490;DHT22;32204;49.160;8.580;2023-05-17T17:01:21;17.40;99.90
46490;DHT22;32204;49.160;8.580;2023-05-17T17:03:47;17.20;99.90
46490;DHT22;32204;49.160;8.580;2023-05-17T17:06:12;17.10;99.90
46490;DHT22;32204;49.160;8.580;2023-05-17T17:08:38;17.10;99.90
46490;DHT22;32204;49.160;8.580;2023-05-17T17:11:04;17.00;99.90
46490;DHT22;32204;49.160;8.580;2023-05-17T17:13:29;17.00;99.90
46490;DHT22;32204;49.160;8.580;2023-05-17T17:15:55;16.90;99.90
46490;DHT22;32204;49.160;8.580;2023-05-17T17:18:21;16.90;99.90
46490;DHT22;32204;49.160;8.580;2023-05-17T17:20:46;16.80;99.90
46490;DHT22;32204;49.160;8.580;2023-05-17T17:23:12;16.80;99.90
46490;DHT22;32204;49.160;8.580;2023-05-17T17:25:38;17.00;99.90
46490;DHT22;32204;49.160;8.580;2023-05-17T17:28:03;17.20;99.90
46490;DHT22;32204;49.160;8.580;2023-05-17T17:30:29;17.40;99.90
46490;DHT22;32204;49.160;8.580;2023-05-17T17:32:55;17.60;99.90
46490;DHT22;32204;49.160;8.580;2023-05-17T17:35:21;17.90;99.90
46490;DHT22;32204;49.160;8.580;2023-05-17T17:37:46;17.90;99.90
46490;DHT22;32204;49.160;8.580;2023-05-17T17:40:12;17.70;99.90
46490;DHT22;32204;49.160;8.580;2023-05-17T17:42:37;17.40;99.90
46490;DHT22;32204;49.160;8.580;2023-05-17T17:45:03;17.10;99.90
46490;DHT22;32204;49.160;8.580;2023-05-17T17:47:29;17.00;99.90
46490;DHT22;32204;49.160;8.580;2023-05-17T17:49:55;17.00;99.90
46490;DHT22;32204;49.160;8.580;2023-05-17T17:52:20;17.10;99.90
46490;DHT22;32204;49.160;8.580;2023-05-17T17:54:46;17.30;99.90
46490;DHT22;32204;49.160;8.580;2023-05-17T17:57:12;17.20;99.90
46490;DHT22;32204;49.160;8.580;2023-05-17T17:59:37;16.90;99.90
46490;DHT22;32204;49.160;8.580;2023-05-17T18:02:03;16.70;99.90
46490;DHT22;32204;49.160;8.580;2023-05-17T18:04:28;16.30;99.90
46490;DHT22;32204;49.160;8.580;2023-05-17T18:06:54;16.30;99.90
46490;DHT22;32204;49.160;8.580;2023-05-17T18:09:21;16.10;99.90
46490;DHT22;32204;49.160;8.580;2023-05-17T18:11:46;16.00;99.90
46490;DHT22;32204;49.160;8.580;2023-05-17T18:14:13;16.00;99.90
46490;DHT22;32204;49.160;8.580;2023-05-17T18:16:39;16.10;99.90
46490;DHT22;32204;49.160;8.580;2023-05-17T18:19:05;16.10;99.90
46490;DHT22;32204;49.160;8.580;2023-05-17T18:21:31;16.20;99.90
46490;DHT22;32204;49.160;8.580;2023-05-17T18:23:57;16.40;99.90
46490;DHT22;32204;49.160;8.580;2023-05-17T18:26:22;16.50;99.90
46490;DHT22;32204;49.160;8.580;2023-05-17T18:28:49;16.40;99.90
46490;DHT22;32204;49.160;8.580;2023-05-17T18:31:15;16.30;99.90
46490;DHT22;32204;49.160;8.580;2023-05-17T18:33:42;16.10;99.90
46490;DHT22;32204;49.160;8.580;2023-05-17T18:36:08;16.00;99.90
46490;DHT22;32204;49.160;8.580;2023-05-17T18:38:34;16.10;99.90
46490;DHT22;32204;49.160;8.580;2023-05-17T18:40:59;16.00;99.90
46490;DHT22;32204;49.160;8.580;2023-05-17T18:43:28;15.90;99.90
46490;DHT22;32204;49.160;8.580;2023-05-17T18:45:54;15.90;99.90
46490;DHT22;32204;49.160;8.580;2023-05-17T18:48:19;16.00;99.90
46490;DHT22;32204;49.160;8.580;2023-05-17T18:50:46;15.90;99.90
46490;DHT22;32204;49.160;8.580;2023-05-17T18:53:12;15.90;99.90
46490;DHT22;32204;49.160;8.580;2023-05-17T18:55:39;15.80;99.90
46490;DHT22;32204;49.160;8.580;2023-05-17T18:58:06;15.80;99.90
46490;DHT22;32204;49.160;8.580;2023-05-17T19:00:32;15.60;99.90
46490;DHT22;32204;49.160;8.580;2023-05-17T19:02:58;15.50;99.90
46490;DHT22;32204;49.160;8.580;2023-05-17T19:05:23;15.40;1.00
46490;DHT22;32204;49.160;8.580;2023-05-17T19:07:49;15.20;94.20
46490;DHT22;32204;49.160;8.580;2023-05-17T19:10:15;14.90;99.90
46490;DHT22;32204;49.160;8.580;2023-05-17T19:12:40;14.70;99.90
46490;DHT22;32204;49.160;8.580;2023-05-17T19:15:07;14.50;99.90
46490;DHT22;32204;49.160;8.580;2023-05-17T19:17:34;14.50;99.90
46490;DHT22;32204;49.160;8.580;2023-05-17T19:20:01;14.30;99.90
46490;DHT22;32204;49.160;8.580;2023-05-17T19:22:27;14.20;99.90
46490;DHT22;32204;49.160;8.580;2023-05-17T19:24:53;14.00;99.90
46490;DHT22;32204;49.160;8.580;2023-05-17T19:27:18;13.90;1.00
46490;DHT22;32204;49.160;8.580;2023-05-17T19:29:45;14.00;99.90
46490;DHT22;32204;49.160;8.580;2023-05-17T19:32:11;14.00;99.90
46490;DHT22;32204;49.160;8.580;2023-05-17T19:34:36;13.80;99.90
46490;DHT22;32204;49.160;8.580;2023-05-17T19:37:02;13.80;99.90
46490;DHT22;32204;49.160;8.580;2023-05-17T19:39:28;13.90;99.90
46490;DHT22;32204;49.160;8.580;2023-05-17T19:41:54;13.80;99.90
46490;DHT22;32204;49.160;8.580;2023-05-17T19:44:20;13.70;1.00
46490;DHT22;32204;49.160;8.580;2023-05-17T19:46:45;13.60;1.00
46490;DHT22;32204;49.160;8.580;2023-05-17T19:49:11;13.60;1.00
46490;DHT22;32204;49.160;8.580;2023-05-17T19:51:37;13.50;1.00
46490;DHT22;32204;49.160;8.580;2023-05-17T19:54:02;13.30;19.20
46490;DHT22;32204;49.160;8.580;2023-05-17T19:56:28;13.20;99.90
46490;DHT22;32204;49.160;8.580;2023-05-17T19:58:54;13.20;99.90
46490;DHT22;32204;49.160;8.580;2023-05-17T20:01:19;13.00;99.90
46490;DHT22;32204;49.160;8.580;2023-05-17T20:03:48;12.90;1.00
46490;DHT22;32204;49.160;8.580;2023-05-17T20:06:14;13.00;99.90
46490;DHT22;32204;49.160;8.580;2023-05-17T20:08:40;13.00;99.90
46490;DHT22;32204;49.160;8.580;2023-05-17T20:11:06;13.10;99.90
46490;DHT22;32204;49.160;8.580;2023-05-17T20:13:33;12.90;99.90
46490;DHT22;32204;49.160;8.580;2023-05-17T20:15:59;12.80;99.90
46490;DHT22;32204;49.160;8.580;2023-05-17T20:18:25;12.70;99.90
46490;DHT22;32204;49.160;8.580;2023-05-17T20:20:52;12.70;99.90
46490;DHT22;32204;49.160;8.580;2023-05-17T20:23:23;12.70;99.90
46490;DHT22;32204;49.160;8.580;2023-05-17T20:25:48;12.70;99.90
46490;DHT22;32204;49.160;8.580;2023-05-17T20:28:14;12.80;99.90
46490;DHT22;32204;49.160;8.580;2023-05-17T20:30:42;12.70;99.90
46490;DHT22;32204;49.160;8.580;2023-05-17T20:33:08;12.70;99.90
46490;DHT22;32204;49.160;8.580;2023-05-17T20:35:34;12.80;99.90
46490;DHT22;32204;49.160;8.580;2023-05-17T20:37:59;12.80;99.90
46490;DHT22;32204;49.160;8.580;2023-05-17T20:40:25;12.80;99.90
46490;DHT22;32204;49.160;8.580;2023-05-17T20:42:51;12.50;1.00
46490;DHT22;32204;49.160;8.580;2023-05-17T20:45:18;12.40;99.90
46490;DHT22;32204;49.160;8.580;2023-05-17T20:47:44;12.30;9.10
46490;DHT22;32204;49.160;8.580;2023-05-17T20:50:09;12.20;99.90
46490;DHT22;32204;49.160;8.580;2023-05-17T20:52:36;12.00;1.00
46490;DHT22;32204;49.160;8.580;2023-05-17T20:55:02;12.00;99.90
46490;DHT22;32204;49.160;8.580;2023-05-17T20:57:28;11.70;99.90
46490;DHT22;32204;49.160;8.580;2023-05-17T20:59:54;11.70;1.00
46490;DHT22;32204;49.160;8.580;2023-05-17T21:02:19;11.80;1.00
46490;DHT22;32204;49.160;8.580;2023-05-17T21:04:49;12.00;99.90
46490;DHT22;32204;49.160;8.580;2023-05-17T21:07:17;12.20;99.90
46490;DHT22;32204;49.160;8.580;2023-05-17T21:09:44;12.30;99.90
46490;DHT22;32204;49.160;8.580;2023-05-17T21:12:12;12.20;99.90
46490;DHT22;32204;49.160;8.580;2023-05-17T21:14:37;12.10;1.00
46490;DHT22;32204;49.160;8.580;2023-05-17T21:17:03;12.00;1.00
46490;DHT22;32204;49.160;8.580;2023-05-17T21:19:28;12.00;1.00
46490;DHT22;32204;49.160;8.580;2023-05-17T21:21:54;12.10;1.00
46490;DHT22;32204;49.160;8.580;2023-05-17T21:24:20;12.00;1.00
46490;DHT22;32204;49.160;8.580;2023-05-17T21:26:45;12.00;1.00
46490;DHT22;32204;49.160;8.580;2023-05-17T21:29:11;11.90;1.00
46490;DHT22;32204;49.160;8.580;2023-05-17T21:31:36;11.80;53.90
46490;DHT22;32204;49.160;8.580;2023-05-17T21:34:02;11.80;99.90
46490;DHT22;32204;49.160;8.580;2023-05-17T21:36:28;11.70;99.90
46490;DHT22;32204;49.160;8.580;2023-05-17T21:38:53;11.60;99.90